Terminal Aerodrome Forecast
Issued by NWS

Home | Current Version | Previous Version | Text Only | Print | Product List | Glossary On
Versions: 1 2 3 4 5 6 7 8 9 10 11 12 13 14 15 16 17 18 19 20 21
000
FTUS42 KTBW 181100
TAFLAL
TAF
KLAL 181139Z 1812/1912 09010KT P6SM SCT010 OVC030
      TEMPO 1812/1814 BKN010
     FM181500 14012KT 5SM SHRA SCT020 OVC060
     FM181800 14011KT 3SM SHRA BKN025 OVC080
     FM182000 15012KT P6SM SHRA SCT070 OVC090=

USA.gov is the U.S. government's official web portal to all federal, state and local government web resources and services.